Time;durP1;ratioP1;P1;durP2;ratioP2;P2;SDS_P1;SDS_P2;PMS_P1;PMS_P2;Temp;Humidity;BMP_temperature;BMP_pressure;BME280_temperature;BME280_humidity;BME280_pressure;Samples;Min_cycle;Max_cycle;Signal;HPM_P1;HPM_P2
2022/10/23 00:01:28;;;;;;;17.33;7.20;;;15.70;99.90;;;;;;5070444;28;25058;-72
2022/10/23 00:03:59;;;;;;;17.42;7.03;;;15.80;99.90;;;;;;5068627;28;25067;-72
2022/10/23 00:06:26;;;;;;;14.27;7.47;;;15.80;99.90;;;;;;5075802;28;25138;-74
2022/10/23 00:08:52;;;;;;;16.45;6.93;;;15.80;99.90;;;;;;5074272;28;25062;-73
2022/10/23 00:11:23;;;;;;;13.10;6.50;;;15.70;99.90;;;;;;5076977;28;25070;-72
2022/10/23 00:13:50;;;;;;;20.55;7.57;;;15.70;99.90;;;;;;5078192;28;25072;-73
2022/10/23 00:16:16;;;;;;;18.88;7.95;;;15.70;99.90;;;;;;5076835;28;25059;-72
2022/10/23 00:18:41;;;;;;;17.45;7.80;;;15.50;99.90;;;;;;5077343;28;25081;-72
2022/10/23 00:21:09;;;;;;;23.70;8.32;;;15.70;99.90;;;;;;5073388;28;25063;-72
2022/10/23 00:23:35;;;;;;;20.88;8.02;;;15.60;99.90;;;;;;5072919;28;25099;-72
2022/10/23 00:26:02;;;;;;;19.23;7.88;;;15.70;99.90;;;;;;5071966;28;25084;-71
2022/10/23 00:28:27;;;;;;;16.27;8.45;;;15.80;99.90;;;;;;5074746;28;25073;-72
2022/10/23 00:30:53;;;;;;;13.55;7.00;;;15.80;99.90;;;;;;5052686;28;25119;-74
2022/10/23 00:33:19;;;;;;;18.60;7.10;;;15.90;99.90;;;;;;5057404;28;25095;-72
2022/10/23 00:35:44;;;;;;;18.95;8.07;;;15.80;99.90;;;;;;5057353;28;25068;-72
2022/10/23 00:38:10;;;;;;;15.88;7.22;;;15.60;99.90;;;;;;5069990;28;25070;-72
2022/10/23 00:40:37;;;;;;;16.00;7.93;;;15.60;99.90;;;;;;5060586;28;25055;-72
2022/10/23 00:43:03;;;;;;;18.65;8.13;;;15.60;99.90;;;;;;5075123;28;25197;-71
2022/10/23 00:45:32;;;;;;;17.50;8.50;;;15.60;99.90;;;;;;5069659;28;25126;-72
2022/10/23 00:48:00;;;;;;;17.52;8.10;;;15.50;99.90;;;;;;5064863;28;25112;-71
2022/10/23 00:50:28;;;;;;;23.02;8.55;;;15.60;99.90;;;;;;5071121;28;25110;-72
2022/10/23 00:52:55;;;;;;;15.82;7.63;;;15.60;99.90;;;;;;5061167;28;25064;-72
2022/10/23 00:55:24;;;;;;;13.18;6.88;;;15.50;99.90;;;;;;5068595;28;25078;-72
2022/10/23 00:57:50;;;;;;;18.15;8.40;;;15.60;99.90;;;;;;5061733;28;25100;-72
2022/10/23 01:00:45;;;;;;;15.75;7.63;;;15.60;99.90;;;;;;5063120;28;25083;-72
2022/10/23 01:03:11;;;;;;;21.52;7.50;;;15.50;99.90;;;;;;5056914;28;25093;-71
2022/10/23 01:05:58;;;;;;;17.85;8.55;;;15.50;99.90;;;;;;5060862;28;25048;-71
2022/10/23 01:08:49;;;;;;;22.67;8.27;;;15.50;99.90;;;;;;5060077;28;25060;-72
2022/10/23 01:11:37;;;;;;;20.40;8.10;;;15.50;99.90;;;;;;5063222;28;25090;-72
2022/10/23 01:14:31;;;;;;;14.18;8.55;;;15.50;99.90;;;;;;5065611;28;25059;-72
2022/10/23 01:17:19;;;;;;;15.13;7.22;;;15.40;99.90;;;;;;5060337;28;25072;-72
2022/10/23 01:20:14;;;;;;;17.13;7.55;;;15.40;99.90;;;;;;5065487;28;25128;-72
2022/10/23 01:23:05;;;;;;;18.77;8.48;;;15.50;99.90;;;;;;5069786;28;25073;-72
2022/10/23 01:26:25;;;;;;;14.15;7.30;;;15.60;99.90;;;;;;5069657;28;25065;-71
2022/10/23 01:29:22;;;;;;;17.73;7.30;;;15.40;99.90;;;;;;4970199;28;25074;-75
2022/10/23 01:31:58;;;;;;;17.85;7.85;;;15.50;99.90;;;;;;5071778;28;25082;-73
2022/10/23 01:34:47;;;;;;;22.15;7.70;;;15.30;99.90;;;;;;5069381;28;25134;-72
2022/10/23 01:37:19;;;;;;;19.58;7.85;;;15.40;99.90;;;;;;5069982;28;25149;-73
2022/10/23 01:39:48;;;;;;;23.85;8.32;;;15.50;99.90;;;;;;5077015;28;25076;-72
2022/10/23 01:42:27;;;;;;;17.73;9.05;;;15.50;99.90;;;;;;5080544;28;25060;-72
2022/10/23 01:45:02;;;;;;;19.48;8.02;;;15.50;99.90;;;;;;5072241;28;25092;-72
2022/10/23 01:47:32;;;;;;;20.52;8.18;;;15.40;99.90;;;;;;5079873;28;25064;-72
2022/10/23 01:49:59;;;;;;;18.40;8.38;;;15.40;99.90;;;;;;5076116;28;25061;-71
2022/10/23 01:52:25;;;;;;;21.92;8.10;;;15.40;99.90;;;;;;5074797;28;25137;-71
2022/10/23 01:54:54;;;;;;;13.45;7.80;;;15.50;99.90;;;;;;5080046;28;25077;-71
2022/10/23 01:57:22;;;;;;;24.80;8.02;;;15.50;99.90;;;;;;5075413;28;25082;-72
2022/10/23 01:59:59;;;;;;;17.23;7.53;;;15.50;99.90;;;;;;5078350;28;25105;-72
2022/10/23 02:02:26;;;;;;;15.60;7.50;;;15.60;99.90;;;;;;5057166;28;25151;-73
2022/10/23 02:05:16;;;;;;;13.98;7.15;;;15.70;99.90;;;;;;5079790;28;25102;-72
2022/10/23 02:07:42;;;;;;;18.35;7.90;;;15.70;99.90;;;;;;5067772;28;25097;-72
2022/10/23 02:10:09;;;;;;;22.85;8.40;;;15.60;99.90;;;;;;5078246;28;25163;-72
2022/10/23 02:13:06;;;;;;;18.10;7.43;;;15.60;99.90;;;;;;5076179;28;25079;-71
2022/10/23 02:15:45;;;;;;;14.30;7.07;;;15.60;99.90;;;;;;5070911;28;25162;-72
2022/10/23 02:18:19;;;;;;;16.80;7.43;;;15.70;99.90;;;;;;5070426;28;25172;-72
2022/10/23 02:20:52;;;;;;;16.30;7.60;;;15.80;99.90;;;;;;5081863;28;25051;-72
2022/10/23 02:23:46;;;;;;;12.93;7.00;;;15.70;99.90;;;;;;5068285;28;25106;-72
2022/10/23 02:26:28;;;;;;;14.38;6.72;;;15.80;99.90;;;;;;5063108;28;25138;-71
2022/10/23 02:29:00;;;;;;;14.32;7.70;;;15.70;99.90;;;;;;5074630;28;25075;-72
2022/10/23 02:31:26;;;;;;;16.27;6.80;;;15.70;99.90;;;;;;5078258;28;25051;-73
2022/10/23 02:33:51;;;;;;;14.40;7.10;;;15.60;99.90;;;;;;5040350;28;25084;-72
2022/10/23 02:36:18;;;;;;;15.20;6.68;;;15.70;99.90;;;;;;5073851;28;25093;-71
2022/10/23 02:38:44;;;;;;;17.85;6.35;;;15.50;99.90;;;;;;5068553;28;25063;-72
2022/10/23 02:41:25;;;;;;;18.60;6.43;;;15.50;99.90;;;;;;5077555;28;25062;-72
2022/10/23 02:44:27;;;;;;;15.55;6.95;;;15.50;99.90;;;;;;5077184;28;25073;-72
2022/10/23 02:47:04;;;;;;;12.98;7.03;;;15.60;99.90;;;;;;5064743;28;25068;-72
2022/10/23 02:49:42;;;;;;;13.02;6.55;;;15.60;99.90;;;;;;5056739;28;25112;-71
2022/10/23 02:52:22;;;;;;;10.25;6.32;;;15.70;99.90;;;;;;5067794;28;25058;-71
2022/10/23 02:55:06;;;;;;;18.88;7.15;;;15.60;99.90;;;;;;5070710;28;25069;-72
2022/10/23 02:57:35;;;;;;;14.10;5.93;;;15.60;99.90;;;;;;5048063;28;25125;-72
2022/10/23 03:00:07;;;;;;;12.35;6.00;;;15.60;99.90;;;;;;5084370;28;25066;-73
2022/10/23 03:02:45;;;;;;;14.70;6.93;;;15.60;99.90;;;;;;5080784;28;25123;-73
2022/10/23 03:05:15;;;;;;;14.85;7.28;;;15.70;99.90;;;;;;5074487;28;25160;-72
2022/10/23 03:07:43;;;;;;;13.60;5.93;;;15.70;99.90;;;;;;5081826;28;25052;-72
2022/10/23 03:10:09;;;;;;;16.58;6.45;;;15.70;99.90;;;;;;5068597;28;25055;-72
2022/10/23 03:12:35;;;;;;;16.73;6.57;;;15.70;99.90;;;;;;5079501;28;25087;-72
2022/10/23 03:15:01;;;;;;;18.30;6.85;;;15.60;99.90;;;;;;5072116;28;25104;-72
2022/10/23 03:17:26;;;;;;;13.70;5.80;;;15.60;99.90;;;;;;5075485;28;25109;-73
2022/10/23 03:19:52;;;;;;;14.40;6.95;;;15.70;99.90;;;;;;5059418;28;25079;-72
2022/10/23 03:22:17;;;;;;;13.10;5.10;;;15.80;99.90;;;;;;5049678;28;25129;-72
2022/10/23 03:24:43;;;;;;;13.20;6.30;;;15.70;99.90;;;;;;5067502;28;25143;-72
2022/10/23 03:27:10;;;;;;;18.95;5.68;;;15.70;99.90;;;;;;5066012;28;25152;-73
2022/10/23 03:29:36;;;;;;;12.82;5.32;;;15.60;99.90;;;;;;5056531;28;25060;-73
2022/10/23 03:32:03;;;;;;;11.38;6.28;;;15.50;99.90;;;;;;5079346;28;25049;-72
2022/10/23 03:34:28;;;;;;;15.68;6.68;;;15.50;99.90;;;;;;5070466;28;25087;-73
2022/10/23 03:36:54;;;;;;;15.25;5.80;;;15.40;99.90;;;;;;5072924;28;25087;-72
2022/10/23 03:39:20;;;;;;;18.45;6.60;;;15.40;99.90;;;;;;5077503;28;25126;-73
2022/10/23 03:41:46;;;;;;;12.73;5.95;;;15.60;99.90;;;;;;5056085;28;25184;-72
2022/10/23 03:44:11;;;;;;;13.05;5.88;;;15.60;99.90;;;;;;5047873;28;25125;-72
2022/10/23 03:46:37;;;;;;;13.65;6.10;;;15.60;99.90;;;;;;5075945;28;25108;-72
2022/10/23 03:49:03;;;;;;;7.75;5.20;;;15.50;99.90;;;;;;5080033;28;25129;-72
2022/10/23 03:51:29;;;;;;;11.10;5.30;;;15.50;99.90;;;;;;5070571;28;25080;-72
2022/10/23 03:53:54;;;;;;;19.20;5.57;;;15.50;99.90;;;;;;5060308;28;25088;-72
2022/10/23 03:56:20;;;;;;;11.65;5.70;;;15.60;99.90;;;;;;5074106;28;25067;-73
2022/10/23 03:58:46;;;;;;;16.40;6.15;;;15.60;99.90;;;;;;5076644;28;25135;-72
2022/10/23 04:01:12;;;;;;;7.45;4.95;;;15.60;99.90;;;;;;5075790;28;25145;-72
2022/10/23 04:03:37;;;;;;;11.75;5.28;;;15.40;99.90;;;;;;5072974;28;25064;-72
2022/10/23 04:06:03;;;;;;;10.38;4.63;;;15.40;99.90;;;;;;5061944;28;25077;-72
2022/10/23 04:08:29;;;;;;;13.02;5.00;;;15.40;99.90;;;;;;5069951;28;25086;-72
2022/10/23 04:10:54;;;;;;;15.18;5.47;;;15.40;99.90;;;;;;5069921;28;25054;-73
2022/10/23 04:13:20;;;;;;;11.02;5.07;;;15.50;99.90;;;;;;5072348;28;25144;-72
2022/10/23 04:15:50;;;;;;;14.52;5.38;;;15.50;99.90;;;;;;5064456;28;25078;-74
2022/10/23 04:18:16;;;;;;;13.05;4.85;;;15.60;99.90;;;;;;5064132;28;25155;-72
2022/10/23 04:20:41;;;;;;;14.38;4.97;;;15.50;99.90;;;;;;5051108;28;25071;-72
2022/10/23 04:23:07;;;;;;;13.40;5.25;;;15.50;99.90;;;;;;5062928;28;25061;-72
2022/10/23 04:25:33;;;;;;;11.95;5.90;;;15.50;99.90;;;;;;5071863;28;25086;-73
2022/10/23 04:27:58;;;;;;;14.55;5.03;;;15.60;99.90;;;;;;5064213;28;25071;-73
2022/10/23 04:30:24;;;;;;;10.93;5.13;;;15.50;99.90;;;;;;5059434;28;25053;-72
2022/10/23 04:32:50;;;;;;;11.80;5.05;;;15.50;99.90;;;;;;5053013;28;25057;-72
2022/10/23 04:35:16;;;;;;;11.98;5.00;;;15.50;99.90;;;;;;5060083;28;25075;-74
2022/10/23 04:37:42;;;;;;;12.80;5.05;;;15.50;99.90;;;;;;5062941;28;25139;-73
2022/10/23 04:40:08;;;;;;;12.00;5.00;;;15.60;99.90;;;;;;5059766;28;25170;-73
2022/10/23 04:42:34;;;;;;;9.35;5.03;;;15.60;99.90;;;;;;5052938;28;25091;-74
2022/10/23 04:44:59;;;;;;;11.93;4.70;;;15.70;99.90;;;;;;5059548;28;25082;-73
2022/10/23 04:47:25;;;;;;;8.63;4.70;;;15.60;99.90;;;;;;5057492;28;25073;-72
2022/10/23 04:49:50;;;;;;;14.38;5.53;;;15.70;99.90;;;;;;5062720;28;25129;-72
2022/10/23 04:52:16;;;;;;;12.20;4.63;;;15.80;99.90;;;;;;5062229;28;25062;-72
2022/10/23 04:54:41;;;;;;;11.63;5.07;;;15.90;99.90;;;;;;5066857;28;25059;-70
2022/10/23 04:57:07;;;;;;;13.15;5.40;;;15.90;99.90;;;;;;5060850;28;25065;-73
2022/10/23 04:59:33;;;;;;;12.07;4.85;;;15.80;99.90;;;;;;5068472;28;25081;-72
2022/10/23 05:01:58;;;;;;;9.70;4.70;;;15.90;99.90;;;;;;5068072;28;25070;-72
2022/10/23 05:04:24;;;;;;;13.13;5.07;;;15.80;99.90;;;;;;5076847;28;25093;-73
2022/10/23 05:06:49;;;;;;;16.02;5.00;;;15.80;99.90;;;;;;5072562;28;25135;-72
2022/10/23 05:09:15;;;;;;;11.07;5.15;;;15.80;99.90;;;;;;5066108;28;25179;-73
2022/10/23 05:11:40;;;;;;;10.93;4.80;;;15.80;99.90;;;;;;5064013;28;25086;-72
2022/10/23 05:14:06;;;;;;;9.70;4.43;;;15.90;99.90;;;;;;5049762;28;25055;-73
2022/10/23 05:16:41;;;;;;;14.73;4.68;;;15.90;99.90;;;;;;5062246;28;25056;-72
2022/10/23 05:19:10;;;;;;;8.52;4.28;;;15.80;99.90;;;;;;5067099;28;25074;-72
2022/10/23 05:21:37;;;;;;;11.45;4.75;;;15.80;99.90;;;;;;5067816;28;25080;-73
2022/10/23 05:24:03;;;;;;;10.80;4.75;;;15.70;99.90;;;;;;5067357;28;25052;-73
2022/10/23 05:26:30;;;;;;;14.10;4.88;;;15.70;99.90;;;;;;5070575;28;25051;-72
2022/10/23 05:28:56;;;;;;;17.77;5.22;;;15.70;99.90;;;;;;5076277;28;25111;-72
2022/10/23 05:31:24;;;;;;;21.92;5.80;;;15.70;99.90;;;;;;5041751;28;25060;-74
2022/10/23 05:33:51;;;;;;;6.38;3.95;;;15.70;99.90;;;;;;5053975;28;25084;-72
2022/10/23 05:36:17;;;;;;;13.05;4.55;;;15.80;99.90;;;;;;5071223;28;25118;-72
2022/10/23 05:38:44;;;;;;;7.95;4.47;;;15.80;99.90;;;;;;5068209;28;25145;-72
2022/10/23 05:41:10;;;;;;;14.70;4.95;;;15.70;99.90;;;;;;5066971;28;25134;-74
2022/10/23 05:43:35;;;;;;;14.13;5.07;;;15.70;99.90;;;;;;5064961;28;25083;-73
2022/10/23 05:46:05;;;;;;;12.57;4.72;;;15.70;99.90;;;;;;5074560;28;25135;-74
2022/10/23 05:48:30;;;;;;;7.72;4.47;;;15.70;99.90;;;;;;5066231;28;25072;-72
2022/10/23 05:51:05;;;;;;;10.65;4.97;;;15.70;99.90;;;;;;5074826;28;25054;-73
2022/10/23 05:53:30;;;;;;;11.93;4.50;;;15.70;99.90;;;;;;5067135;28;25072;-74
2022/10/23 05:56:02;;;;;;;9.77;4.85;;;15.70;99.90;;;;;;5078365;28;25061;-72
2022/10/23 05:58:28;;;;;;;13.10;5.13;;;15.70;99.90;;;;;;5070505;28;25174;-73
2022/10/23 06:00:53;;;;;;;10.02;5.75;;;15.80;99.90;;;;;;5084004;28;25082;-73
2022/10/23 06:03:19;;;;;;;7.80;4.80;;;15.70;99.90;;;;;;5062191;28;25055;-72
2022/10/23 06:05:49;;;;;;;10.55;4.65;;;15.70;99.90;;;;;;5066219;28;25053;-72
2022/10/23 06:08:14;;;;;;;16.23;4.70;;;15.70;99.90;;;;;;5060689;28;25090;-72
2022/10/23 06:10:40;;;;;;;11.63;4.43;;;15.60;99.90;;;;;;5078104;28;25157;-73
2022/10/23 06:13:05;;;;;;;9.50;5.00;;;15.60;99.90;;;;;;5072054;28;25056;-72
2022/10/23 06:15:31;;;;;;;9.95;4.90;;;15.60;99.90;;;;;;5080825;28;25056;-73
2022/10/23 06:18:06;;;;;;;11.00;5.00;;;15.60;99.90;;;;;;5046833;28;25077;-74
2022/10/23 06:20:35;;;;;;;11.02;4.82;;;15.60;99.90;;;;;;5063266;28;25063;-73
2022/10/23 06:23:01;;;;;;;7.93;5.18;;;15.70;99.90;;;;;;5061039;28;25079;-73
2022/10/23 06:25:26;;;;;;;11.93;5.30;;;15.80;99.90;;;;;;5056427;28;25066;-72
2022/10/23 06:27:52;;;;;;;10.95;5.10;;;15.80;99.90;;;;;;5064146;28;25052;-73
2022/10/23 06:30:18;;;;;;;10.82;4.85;;;15.70;99.90;;;;;;5057157;28;25081;-73
2022/10/23 06:32:43;;;;;;;12.85;5.32;;;15.70;99.90;;;;;;5062893;28;25077;-74
2022/10/23 06:35:09;;;;;;;10.95;5.22;;;15.70;99.90;;;;;;5055134;28;25082;-74
2022/10/23 06:37:34;;;;;;;13.93;5.18;;;15.80;99.90;;;;;;5057176;28;25132;-72
2022/10/23 06:40:00;;;;;;;14.32;6.10;;;15.70;99.90;;;;;;5050224;28;25064;-72
2022/10/23 06:42:25;;;;;;;10.73;5.63;;;15.70;99.90;;;;;;5055875;28;25063;-74
2022/10/23 06:44:51;;;;;;;9.68;5.03;;;15.70;99.90;;;;;;5061050;28;25077;-73
2022/10/23 06:47:16;;;;;;;10.27;5.38;;;15.60;99.90;;;;;;5067712;28;25070;-73
2022/10/23 06:49:42;;;;;;;13.65;5.97;;;15.60;99.90;;;;;;5063284;28;25061;-73
2022/10/23 06:52:08;;;;;;;10.32;5.43;;;15.60;99.90;;;;;;5058067;28;25096;-73
2022/10/23 06:54:33;;;;;;;13.75;5.57;;;15.70;99.90;;;;;;5056581;28;25062;-73
2022/10/23 06:56:59;;;;;;;13.02;5.90;;;15.70;99.90;;;;;;5054524;28;25059;-73
2022/10/23 06:59:24;;;;;;;17.00;6.43;;;15.70;99.90;;;;;;5059147;28;25068;-72
2022/10/23 07:01:50;;;;;;;11.95;5.80;;;15.70;99.90;;;;;;5065483;28;25062;-72
2022/10/23 07:04:16;;;;;;;12.77;5.78;;;15.70;99.90;;;;;;5059840;28;25138;-75
2022/10/23 07:06:42;;;;;;;16.90;6.60;;;15.70;99.90;;;;;;5064601;28;25056;-75
2022/10/23 07:09:08;;;;;;;11.75;6.20;;;15.80;99.90;;;;;;5063294;28;25068;-75
2022/10/23 07:11:34;;;;;;;10.95;5.10;;;15.90;99.90;;;;;;5063845;28;25059;-73
2022/10/23 07:14:00;;;;;;;13.82;5.97;;;15.90;99.90;;;;;;5062608;28;25078;-73
2022/10/23 07:16:25;;;;;;;10.07;5.57;;;16.10;99.90;;;;;;5059209;28;25083;-74
2022/10/23 07:18:59;;;;;;;9.30;5.43;;;16.10;99.90;;;;;;5064147;28;25080;-75
2022/10/23 07:21:36;;;;;;;11.15;5.43;;;16.00;99.90;;;;;;5060868;28;25103;-74
2022/10/23 07:24:02;;;;;;;9.05;5.40;;;16.10;99.90;;;;;;5058221;28;25058;-74
2022/10/23 07:26:28;;;;;;;11.18;5.88;;;16.10;99.90;;;;;;5065247;28;25051;-74
2022/10/23 07:28:54;;;;;;;13.20;5.03;;;16.20;99.90;;;;;;5060638;28;25059;-75
2022/10/23 07:31:22;;;;;;;16.38;6.28;;;16.20;99.90;;;;;;5058656;28;25171;-74
2022/10/23 07:33:48;;;;;;;9.77;5.25;;;16.20;99.90;;;;;;5058636;28;25128;-75
2022/10/23 07:36:13;;;;;;;12.13;5.78;;;16.30;99.90;;;;;;5057877;28;25117;-74
2022/10/23 07:38:39;;;;;;;11.38;5.47;;;16.30;99.90;;;;;;5061277;28;25105;-73
2022/10/23 07:41:05;;;;;;;9.57;4.60;;;16.30;99.90;;;;;;5060008;28;25054;-72
2022/10/23 07:43:32;;;;;;;17.38;5.13;;;16.40;99.90;;;;;;5046495;28;25076;-73
2022/10/23 07:45:58;;;;;;;10.77;5.70;;;16.40;99.90;;;;;;5062424;28;25067;-72
2022/10/23 07:48:26;;;;;;;11.50;5.13;;;16.50;99.90;;;;;;5072150;28;25078;-76
2022/10/23 07:50:51;;;;;;;9.13;4.75;;;16.60;99.90;;;;;;5083501;28;25092;-72
2022/10/23 07:53:23;;;;;;;13.35;5.53;;;16.60;99.90;;;;;;5074871;28;25115;-72
2022/10/23 07:55:57;;;;;;;7.77;5.07;;;16.50;99.90;;;;;;5077723;28;25126;-74
2022/10/23 07:58:23;;;;;;;10.10;5.35;;;16.50;99.90;;;;;;5060934;28;25066;-73
2022/10/23 08:00:58;;;;;;;11.50;5.30;;;16.50;99.90;;;;;;5067861;28;25061;-74
2022/10/23 08:03:28;;;;;;;15.75;5.80;;;16.50;99.90;;;;;;5077472;28;25100;-72
2022/10/23 08:05:55;;;;;;;8.60;4.60;;;16.50;99.90;;;;;;5077825;28;25073;-73
2022/10/23 08:08:21;;;;;;;16.10;5.05;;;16.50;99.90;;;;;;5055195;28;25053;-75
2022/10/23 08:10:48;;;;;;;10.60;5.20;;;16.50;99.90;;;;;;5076747;28;25121;-74
2022/10/23 08:13:14;;;;;;;8.80;4.85;;;16.50;99.90;;;;;;5069401;28;25069;-73
2022/10/23 08:15:41;;;;;;;11.05;5.00;;;16.60;99.90;;;;;;5065431;28;25055;-74
2022/10/23 08:18:07;;;;;;;10.52;5.38;;;16.60;99.90;;;;;;5058431;28;25067;-72
2022/10/23 08:20:43;;;;;;;13.30;5.13;;;16.60;99.90;;;;;;5053610;28;25052;-75
2022/10/23 08:23:11;;;;;;;14.18;5.30;;;16.60;99.90;;;;;;5060603;28;25184;-74
2022/10/23 08:25:38;;;;;;;10.57;5.00;;;16.70;99.90;;;;;;5053716;28;25055;-72
2022/10/23 08:28:05;;;;;;;8.07;5.20;;;16.70;99.90;;;;;;5056468;28;25177;-75
2022/10/23 08:30:31;;;;;;;12.55;5.22;;;16.70;99.90;;;;;;5056411;28;25126;-74
2022/10/23 08:32:56;;;;;;;9.25;4.55;;;16.60;99.90;;;;;;5057542;28;25064;-74
2022/10/23 08:35:22;;;;;;;10.70;5.20;;;16.60;99.90;;;;;;5052760;28;25092;-73
2022/10/23 08:37:48;;;;;;;9.32;4.53;;;16.60;99.90;;;;;;5056838;28;25070;-74
2022/10/23 08:40:16;;;;;;;8.82;4.55;;;16.60;99.90;;;;;;5059634;28;25072;-75
2022/10/23 08:42:46;;;;;;;14.15;4.78;;;16.60;99.90;;;;;;5059521;28;25105;-72
2022/10/23 08:45:30;;;;;;;9.45;4.85;;;16.60;99.90;;;;;;5068664;28;25083;-73
2022/10/23 08:48:03;;;;;;;8.27;4.75;;;16.60;99.90;;;;;;5052270;28;25045;-74
2022/10/23 08:50:39;;;;;;;8.93;5.45;;;16.60;99.90;;;;;;5049596;28;25136;-74
2022/10/23 08:53:19;;;;;;;10.73;5.03;;;16.60;99.90;;;;;;5055641;28;24831;-72
2022/10/23 08:56:03;;;;;;;6.00;4.18;;;16.60;99.90;;;;;;5054272;28;25106;-73
2022/10/23 08:58:39;;;;;;;8.65;5.25;;;16.60;99.90;;;;;;5055518;28;25088;-74
2022/10/23 09:01:33;;;;;;;16.52;4.68;;;16.80;99.90;;;;;;5069357;28;25130;-75
2022/10/23 09:03:59;;;;;;;12.73;4.93;;;16.70;99.90;;;;;;5074916;28;25050;-74
2022/10/23 09:06:37;;;;;;;8.23;4.05;;;16.80;99.90;;;;;;5069334;28;25063;-74
2022/10/23 09:09:08;;;;;;;6.13;3.70;;;16.80;99.90;;;;;;5055445;28;25055;-74
2022/10/23 09:11:48;;;;;;;10.95;4.18;;;16.80;99.90;;;;;;5060781;28;25124;-74
2022/10/23 09:14:35;;;;;;;9.82;4.47;;;16.80;99.90;;;;;;5057301;28;25066;-74
2022/10/23 09:17:06;;;;;;;10.57;4.60;;;16.80;99.90;;;;;;5069697;28;25075;-74
2022/10/23 09:19:32;;;;;;;7.93;4.38;;;16.80;99.90;;;;;;5070533;28;25109;-72
2022/10/23 09:21:58;;;;;;;7.13;4.20;;;16.80;99.90;;;;;;5087091;28;25042;-75
2022/10/23 09:24:27;;;;;;;11.32;4.88;;;17.00;99.90;;;;;;5081672;28;25063;-74
2022/10/23 09:26:53;;;;;;;8.80;4.93;;;16.90;99.90;;;;;;5082068;28;25067;-75
2022/10/23 09:29:34;;;;;;;10.70;4.78;;;16.80;99.90;;;;;;5065028;28;25059;-73
2022/10/23 09:32:03;;;;;;;10.05;4.28;;;16.80;99.90;;;;;;5060007;28;25104;-73
2022/10/23 09:34:31;;;;;;;8.13;4.35;;;16.80;99.90;;;;;;5057628;28;25056;-73
2022/10/23 09:36:59;;;;;;;10.98;4.40;;;16.80;99.90;;;;;;5064459;28;25048;-74
2022/10/23 09:39:34;;;;;;;12.13;4.50;;;16.90;99.90;;;;;;5057968;28;25101;-73
2022/10/23 09:42:11;;;;;;;5.75;4.22;;;16.90;99.90;;;;;;5069885;28;25060;-73
2022/10/23 09:44:47;;;;;;;9.25;4.28;;;16.90;99.90;;;;;;5076600;28;25070;-73
2022/10/23 09:47:19;;;;;;;8.50;3.22;;;16.90;99.90;;;;;;5071002;28;25163;-73
2022/10/23 09:49:51;;;;;;;7.72;3.65;;;16.90;99.90;;;;;;5071889;28;25060;-74
2022/10/23 09:52:16;;;;;;;5.33;4.00;;;17.00;99.90;;;;;;5055723;28;25104;-74
2022/10/23 09:54:46;;;;;;;10.95;3.53;;;16.90;99.90;;;;;;5064901;28;25143;-74
2022/10/23 09:57:42;;;;;;;6.85;3.47;;;17.00;99.90;;;;;;5056743;28;25066;-73
2022/10/23 10:00:18;;;;;;;12.52;3.85;;;16.90;99.90;;;;;;5038538;28;25200;-73
2022/10/23 10:03:02;;;;;;;7.07;3.60;;;17.00;99.90;;;;;;5063870;28;25114;-73
2022/10/23 10:05:31;;;;;;;7.28;3.70;;;17.00;99.90;;;;;;5058139;28;25071;-74
2022/10/23 10:08:12;;;;;;;10.57;3.83;;;17.00;99.90;;;;;;5062001;28;25056;-75
2022/10/23 10:10:50;;;;;;;10.18;3.97;;;17.00;99.90;;;;;;5065907;28;25071;-74
2022/10/23 10:13:30;;;;;;;6.22;3.45;;;17.00;99.90;;;;;;5071557;28;25075;-73
2022/10/23 10:16:03;;;;;;;5.88;3.05;;;17.10;99.90;;;;;;5071575;28;25062;-74
2022/10/23 10:18:38;;;;;;;8.15;3.60;;;17.20;99.90;;;;;;5059129;28;25151;-73
2022/10/23 10:21:24;;;;;;;9.68;4.00;;;17.30;99.90;;;;;;5056533;28;25096;-73
2022/10/23 10:24:04;;;;;;;12.80;3.92;;;17.20;99.90;;;;;;5080984;28;25071;-74
2022/10/23 10:26:38;;;;;;;13.07;3.67;;;17.20;99.90;;;;;;5073384;28;25159;-73
2022/10/23 10:29:24;;;;;;;11.48;3.47;;;17.40;99.90;;;;;;5069742;28;25104;-74
2022/10/23 10:32:05;;;;;;;11.82;3.50;;;17.40;99.90;;;;;;5075962;28;25071;-73
2022/10/23 10:34:49;;;;;;;9.00;3.45;;;17.50;99.90;;;;;;5036334;28;25142;-74
2022/10/23 10:37:32;;;;;;;7.25;3.30;;;17.50;99.90;;;;;;5054995;28;25057;-75
2022/10/23 10:40:13;;;;;;;7.53;3.22;;;17.50;99.90;;;;;;5072979;28;25067;-75
2022/10/23 10:42:44;;;;;;;8.85;3.70;;;17.40;99.90;;;;;;5069568;28;25103;-72
2022/10/23 10:45:32;;;;;;;10.80;5.35;;;17.40;99.90;;;;;;5071478;28;25104;-73
2022/10/23 10:48:22;;;;;;;5.78;3.30;;;17.50;99.90;;;;;;5066106;28;25060;-73
2022/10/23 10:51:01;;;;;;;5.70;3.45;;;17.60;99.90;;;;;;5073301;28;25119;-74
2022/10/23 10:53:50;;;;;;;3.65;2.83;;;17.70;99.90;;;;;;5057832;28;25070;-76
2022/10/23 10:56:19;;;;;;;6.07;2.97;;;17.70;99.90;;;;;;5057941;28;25105;-73
2022/10/23 10:58:59;;;;;;;9.63;3.38;;;17.70;99.90;;;;;;5049718;28;25136;-74
2022/10/23 11:01:48;;;;;;;6.68;2.58;;;17.70;99.90;;;;;;5068666;28;25086;-74
2022/10/23 11:04:32;;;;;;;8.60;3.03;;;17.80;99.90;;;;;;5069196;28;25059;-74
2022/10/23 11:07:00;;;;;;;5.70;3.50;;;17.90;99.90;;;;;;5068352;28;25068;-73
2022/10/23 11:09:28;;;;;;;6.10;2.63;;;17.90;99.90;;;;;;5065258;28;25097;-73
2022/10/23 11:11:54;;;;;;;5.28;2.70;;;17.90;99.90;;;;;;5063216;28;25070;-73
2022/10/23 11:14:24;;;;;;;7.55;3.45;;;17.90;99.90;;;;;;5063192;28;25065;-74
2022/10/23 11:16:58;;;;;;;4.65;2.95;;;18.00;99.90;;;;;;5070228;28;25141;-73
2022/10/23 11:19:47;;;;;;;7.38;3.63;;;18.10;99.90;;;;;;5068208;28;25079;-78
2022/10/23 11:22:32;;;;;;;5.53;2.97;;;18.10;99.90;;;;;;5067242;28;25055;-73
2022/10/23 11:25:16;;;;;;;7.70;3.20;;;18.00;99.90;;;;;;5043545;28;25069;-74
2022/10/23 11:28:12;;;;;;;4.03;2.70;;;18.10;99.90;;;;;;5072007;28;25058;-73
2022/10/23 11:30:43;;;;;;;5.88;3.50;;;18.10;99.90;;;;;;5062715;28;25100;-74
2022/10/23 11:33:39;;;;;;;9.05;2.55;;;18.20;99.90;;;;;;5063476;28;25081;-74
2022/10/23 11:36:44;;;;;;;6.72;2.75;;;18.20;99.90;;;;;;5066395;28;25098;-73
2022/10/23 11:39:31;;;;;;;7.90;2.65;;;18.20;99.90;;;;;;5067454;28;25102;-74
2022/10/23 11:42:05;;;;;;;7.28;2.97;;;18.20;99.90;;;;;;5068797;28;25159;-75
2022/10/23 11:44:42;;;;;;;7.18;2.53;;;18.20;99.90;;;;;;5070477;28;25153;-74
2022/10/23 11:47:30;;;;;;;6.32;2.40;;;18.10;99.90;;;;;;5066834;28;25061;-73
2022/10/23 11:50:07;;;;;;;8.55;2.83;;;18.20;99.90;;;;;;5043051;28;25052;-73
2022/10/23 11:52:59;;;;;;;5.28;1.85;;;18.30;99.90;;;;;;5070305;28;25067;-73
2022/10/23 11:55:29;;;;;;;8.63;2.25;;;18.30;99.90;;;;;;5058146;28;25107;-73
2022/10/23 11:58:04;;;;;;;4.07;2.28;;;18.30;99.90;;;;;;5066425;28;25121;-74
2022/10/23 12:00:31;;;;;;;9.13;2.50;;;18.50;99.90;;;;;;5065064;28;25075;-73
2022/10/23 12:02:58;;;;;;;4.10;1.95;;;18.50;99.90;;;;;;5068779;28;25095;-75
2022/10/23 12:05:29;;;;;;;7.80;2.50;;;18.60;99.90;;;;;;5065720;28;25076;-77
2022/10/23 12:07:58;;;;;;;4.93;2.85;;;18.60;99.90;;;;;;5063390;28;25067;-74
2022/10/23 12:10:42;;;;;;;5.00;2.33;;;18.60;99.90;;;;;;5072247;28;25083;-75
2022/10/23 12:13:33;;;;;;;10.27;2.63;;;18.60;99.90;;;;;;5072546;28;25075;-74
2022/10/23 12:15:58;;;;;;;8.23;2.10;;;18.60;99.90;;;;;;5064320;28;25068;-73
2022/10/23 12:18:24;;;;;;;7.10;2.10;;;18.60;99.90;;;;;;5068226;28;25134;-75
2022/10/23 12:20:58;;;;;;;9.23;2.22;;;18.70;99.90;;;;;;5068389;28;25119;-72
2022/10/23 12:23:26;;;;;;;8.15;2.92;;;18.70;99.90;;;;;;5074967;28;25106;-74
2022/10/23 12:26:10;;;;;;;11.05;2.45;;;18.70;99.90;;;;;;5071382;28;25054;-76
2022/10/23 12:28:43;;;;;;;6.80;2.20;;;18.80;99.90;;;;;;5069440;28;25068;-76
2022/10/23 12:31:31;;;;;;;4.53;1.92;;;18.80;99.90;;;;;;5042255;28;25044;-73
2022/10/23 12:34:02;;;;;;;3.97;2.00;;;18.80;99.90;;;;;;5054402;28;25093;-73
2022/10/23 12:37:01;;;;;;;10.32;2.25;;;18.80;99.90;;;;;;5075059;28;25068;-74
2022/10/23 12:39:32;;;;;;;5.88;2.10;;;18.90;99.90;;;;;;5067263;28;25080;-73
2022/10/23 12:41:59;;;;;;;7.45;2.10;;;18.90;99.90;;;;;;5076136;28;25079;-77
2022/10/23 12:44:26;;;;;;;2.22;1.65;;;18.90;99.90;;;;;;5081696;28;25056;-76
2022/10/23 12:46:59;;;;;;;6.93;1.95;;;18.90;99.90;;;;;;5081019;28;25087;-74
2022/10/23 12:49:27;;;;;;;5.30;2.70;;;18.90;99.90;;;;;;5080109;28;25107;-72
2022/10/23 12:51:59;;;;;;;7.43;2.13;;;18.90;99.90;;;;;;5082330;28;25052;-75
2022/10/23 12:54:26;;;;;;;2.95;1.98;;;19.10;99.90;;;;;;5070440;28;25108;-72
2022/10/23 12:56:53;;;;;;;5.28;2.40;;;19.10;99.90;;;;;;5076417;28;25193;-73
2022/10/23 13:00:01;;;;;;;9.85;2.28;;;19.10;99.90;;;;;;5058738;28;25078;-74
2022/10/23 13:02:29;;;;;;;7.47;2.00;;;19.10;99.90;;;;;;5001523;28;25082;-76
2022/10/23 13:04:58;;;;;;;7.20;2.40;;;19.10;99.90;;;;;;5058063;28;25264;-72